Time,TemperatureF,DewpointF,PressureIn,WindDirection,WindDirectionDegrees,WindSpeedMPH,WindSpeedGustMPH,Humidity,HourlyPrecipIn,Conditions,Clouds,dailyrainin,SolarRadiationWatts/m^2,SoftwareType,DateUTC
2013-06-21 00:03:00,50.7,48.6,29.91,North,355,0.0,10.0,92,0.00,,,0.00,0.0,meteohub,2013-06-21 07:03:00,
2013-06-21 00:08:00,50.7,48.6,29.91,West,279,5.0,10.0,92,0.00,,,0.00,0.0,meteohub,2013-06-21 07:08:00,
2013-06-21 00:13:00,50.5,48.4,29.91,WSW,258,2.0,9.0,92,0.00,,,0.00,0.0,meteohub,2013-06-21 07:13:00,
2013-06-21 00:18:00,50.5,48.4,29.91,WSW,248,9.0,9.0,92,0.00,,,0.00,0.0,meteohub,2013-06-21 07:18:00,
2013-06-21 00:23:00,50.5,48.4,29.91,SSW,211,0.0,8.0,92,0.00,,,0.00,0.0,meteohub,2013-06-21 07:23:00,
2013-06-21 00:28:00,50.5,48.4,29.90,West,270,3.0,10.0,92,0.00,,,0.00,0.0,meteohub,2013-06-21 07:28:00,
2013-06-21 00:33:00,50.4,48.2,29.90,SW,217,3.0,10.0,92,0.00,,,0.00,0.0,meteohub,2013-06-21 07:33:00,
2013-06-21 00:38:00,50.4,48.2,29.90,SW,214,5.0,7.0,92,0.00,,,0.00,0.0,meteohub,2013-06-21 07:38:00,
2013-06-21 00:43:00,50.5,48.6,29.90,West,272,4.0,10.0,93,0.00,,,0.00,0.0,meteohub,2013-06-21 07:43:00,
2013-06-21 00:48:00,50.5,48.6,29.90,WSW,250,1.0,10.0,93,0.00,,,0.00,0.0,meteohub,2013-06-21 07:48:00,
2013-06-21 00:53:00,50.5,48.6,29.90,SW,225,10.0,10.0,93,0.00,,,0.00,0.0,meteohub,2013-06-21 07:53:00,
2013-06-21 00:58:00,50.5,48.6,29.90,SW,215,5.0,10.0,93,0.00,,,0.00,0.0,meteohub,2013-06-21 07:58:00,
2013-06-21 01:03:00,50.5,48.6,29.90,South,189,5.0,13.0,93,0.00,,,0.00,0.0,meteohub,2013-06-21 08:03:00,
2013-06-21 01:08:00,50.5,48.6,29.90,WNW,296,1.0,13.0,93,0.00,,,0.00,0.0,meteohub,2013-06-21 08:08:00,
2013-06-21 01:13:00,50.5,48.6,29.89,West,272,3.0,10.0,93,0.00,,,0.00,0.0,meteohub,2013-06-21 08:13:00,
2013-06-21 01:18:00,50.5,48.6,29.89,SW,226,6.0,10.0,93,0.00,,,0.00,0.0,meteohub,2013-06-21 08:18:00,
2013-06-21 01:23:00,50.5,48.6,29.89,WNW,284,3.0,12.0,93,0.00,,,0.00,0.0,meteohub,2013-06-21 08:23:00,
2013-06-21 01:28:00,50.5,48.9,29.89,SW,217,0.0,12.0,94,0.00,,,0.00,0.0,meteohub,2013-06-21 08:28:00,
2013-06-21 01:33:00,50.5,48.9,29.89,SE,128,1.0,12.0,94,0.00,,,0.00,0.0,meteohub,2013-06-21 08:33:00,
2013-06-21 01:38:00,50.5,48.9,29.89,WNW,282,2.0,11.0,94,0.00,,,0.00,0.0,meteohub,2013-06-21 08:38:00,
2013-06-21 01:44:00,50.5,48.9,29.89,NW,306,0.0,11.0,94,0.00,,,0.00,0.0,meteohub,2013-06-21 08:44:00,
2013-06-21 01:49:00,50.5,48.9,29.89,West,269,0.0,11.0,94,0.00,,,0.00,0.0,meteohub,2013-06-21 08:49:00,
2013-06-21 01:54:00,50.5,48.9,29.89,SW,230,3.0,10.0,94,0.00,,,0.00,0.0,meteohub,2013-06-21 08:54:00,
2013-06-21 01:59:00,50.7,49.3,29.89,WNW,300,2.0,10.0,95,0.00,,,0.00,0.0,meteohub,2013-06-21 08:59:00,
2013-06-21 02:04:00,50.7,49.1,29.89,WSW,245,2.0,10.0,94,0.00,,,0.00,0.0,meteohub,2013-06-21 09:04:00,
2013-06-21 02:09:00,50.7,49.1,29.89,West,277,2.0,8.0,94,0.00,,,0.00,0.0,meteohub,2013-06-21 09:09:00,
2013-06-21 02:14:00,50.7,49.1,29.89,WSW,244,5.0,7.0,94,0.00,,,0.00,0.0,meteohub,2013-06-21 09:14:00,
2013-06-21 02:19:00,50.7,49.3,29.89,SW,221,4.0,7.0,95,0.00,,,0.00,0.0,meteohub,2013-06-21 09:19:00,
2013-06-21 02:24:00,50.7,49.3,29.89,WNW,292,3.0,11.0,95,0.00,,,0.00,0.0,meteohub,2013-06-21 09:24:00,
2013-06-21 02:29:00,50.7,49.3,29.89,WSW,240,5.0,11.0,95,0.00,,,0.00,0.0,meteohub,2013-06-21 09:29:00,
2013-06-21 02:34:00,50.7,49.3,29.89,West,265,2.0,11.0,95,0.00,,,0.00,0.0,meteohub,2013-06-21 09:34:00,
2013-06-21 02:39:00,50.9,49.5,29.89,WSW,244,4.0,10.0,95,0.00,,,0.00,0.0,meteohub,2013-06-21 09:39:00,
2013-06-21 02:44:00,50.7,49.3,29.89,WSW,238,5.0,9.0,95,0.00,,,0.00,0.0,meteohub,2013-06-21 09:44:00,
2013-06-21 02:49:00,50.7,49.3,29.89,WSW,244,5.0,7.0,95,0.00,,,0.00,0.0,meteohub,2013-06-21 09:49:00,
2013-06-21 02:54:00,50.7,49.3,29.89,SW,230,6.0,7.0,95,0.00,,,0.00,0.0,meteohub,2013-06-21 09:54:00,
2013-06-21 02:59:00,50.7,49.3,29.89,SW,236,6.0,13.0,95,0.00,,,0.00,0.0,meteohub,2013-06-21 09:59:00,
2013-06-21 03:04:00,50.7,49.3,29.89,West,281,3.0,13.0,95,0.00,,,0.00,0.0,meteohub,2013-06-21 10:04:00,
2013-06-21 03:09:00,50.7,49.3,29.89,SW,232,6.0,13.0,95,0.00,,,0.00,0.0,meteohub,2013-06-21 10:09:00,
2013-06-21 03:14:00,50.7,49.3,29.89,WSW,242,5.0,12.0,95,0.00,,,0.00,0.0,meteohub,2013-06-21 10:14:00,
2013-06-21 03:19:00,50.7,49.3,29.89,WSW,237,10.0,12.0,95,0.00,,,0.00,0.0,meteohub,2013-06-21 10:19:00,
2013-06-21 03:25:00,50.7,49.3,29.89,SW,236,6.0,14.0,95,0.00,,,0.00,0.0,meteohub,2013-06-21 10:25:00,
2013-06-21 03:30:00,50.5,49.1,29.89,SW,223,9.0,14.0,95,0.00,,,0.00,0.0,meteohub,2013-06-21 10:30:00,
2013-06-21 03:35:00,50.5,49.1,29.88,WSW,242,5.0,14.0,95,0.00,,,0.00,0.0,meteohub,2013-06-21 10:35:00,
2013-06-21 03:40:00,50.5,49.1,29.89,WSW,249,4.0,13.0,95,0.00,,,0.00,0.0,meteohub,2013-06-21 10:40:00,
2013-06-21 03:45:00,50.5,49.1,29.88,SW,225,5.0,12.0,95,0.00,,,0.00,0.0,meteohub,2013-06-21 10:45:00,
2013-06-21 03:50:00,50.5,49.1,29.88,SSW,212,6.0,13.0,95,0.00,,,0.00,0.0,meteohub,2013-06-21 10:50:00,
2013-06-21 03:55:00,50.5,49.1,29.88,SW,234,7.0,13.0,95,0.00,,,0.00,0.0,meteohub,2013-06-21 10:55:00,
2013-06-21 04:00:00,50.5,49.1,29.88,SW,235,5.0,13.0,95,0.00,,,0.00,0.0,meteohub,2013-06-21 11:00:00,
2013-06-21 04:05:00,50.4,48.9,29.88,West,260,1.0,12.0,95,0.00,,,0.00,0.0,meteohub,2013-06-21 11:05:00,
2013-06-21 04:10:00,50.4,48.9,29.88,SW,235,5.0,12.0,95,0.00,,,0.00,0.0,meteohub,2013-06-21 11:10:00,
2013-06-21 04:15:00,50.4,48.9,29.88,SW,236,4.0,12.0,95,0.00,,,0.00,0.0,meteohub,2013-06-21 11:15:00,
2013-06-21 04:20:00,50.4,49.3,29.88,West,261,6.0,11.0,96,0.00,,,0.00,0.0,meteohub,2013-06-21 11:20:00,
2013-06-21 04:25:00,50.4,49.3,29.88,WSW,238,6.0,11.0,96,0.00,,,0.00,0.0,meteohub,2013-06-21 11:25:00,
2013-06-21 04:30:00,50.4,49.3,29.88,WSW,250,3.0,11.0,96,0.00,,,0.00,0.0,meteohub,2013-06-21 11:30:00,
2013-06-21 04:35:00,50.4,49.3,29.88,West,276,2.0,11.0,96,0.00,,,0.00,0.0,meteohub,2013-06-21 11:35:00,
2013-06-21 04:40:00,50.4,49.3,29.88,WSW,255,3.0,11.0,96,0.00,,,0.00,0.0,meteohub,2013-06-21 11:40:00,
2013-06-21 04:45:00,50.4,49.3,29.88,NW,305,4.0,11.0,96,0.00,,,0.00,0.0,meteohub,2013-06-21 11:45:00,
2013-06-21 04:50:00,50.2,49.1,29.88,WSW,250,3.0,11.0,96,0.00,,,0.00,0.0,meteohub,2013-06-21 11:50:00,
2013-06-21 04:55:00,50.2,49.1,29.88,SW,234,8.0,8.0,96,0.00,,,0.00,0.0,meteohub,2013-06-21 11:55:00,
2013-06-21 05:00:00,50.2,49.1,29.88,WSW,241,3.0,9.0,96,0.00,,,0.00,0.0,meteohub,2013-06-21 12:00:00,
2013-06-21 05:05:00,50.0,48.9,29.88,SW,236,7.0,9.0,96,0.00,,,0.00,0.0,meteohub,2013-06-21 12:05:00,
2013-06-21 05:10:00,49.8,48.7,29.88,WSW,257,0.0,9.0,96,0.00,,,0.00,0.0,meteohub,2013-06-21 12:10:00,
2013-06-21 05:15:00,49.8,48.7,29.88,WNW,289,1.0,8.0,96,0.00,,,0.00,0.0,meteohub,2013-06-21 12:15:00,
2013-06-21 05:20:00,49.8,48.7,29.88,WSW,248,2.0,8.0,96,0.00,,,0.00,0.0,meteohub,2013-06-21 12:20:00,
2013-06-21 05:25:00,49.8,48.7,29.89,West,263,3.0,5.0,96,0.00,,,0.00,0.0,meteohub,2013-06-21 12:25:00,
2013-06-21 05:30:00,49.8,48.7,29.89,SW,232,1.0,5.0,96,0.00,,,0.00,0.0,meteohub,2013-06-21 12:30:00,
2013-06-21 05:35:00,49.8,48.7,29.89,WSW,241,0.0,5.0,96,0.00,,,0.00,0.0,meteohub,2013-06-21 12:35:00,
2013-06-21 05:40:00,49.6,48.6,29.89,West,272,3.0,6.0,96,0.00,,,0.00,0.0,meteohub,2013-06-21 12:40:00,
2013-06-21 05:45:00,49.6,48.6,29.89,West,275,2.0,7.0,96,0.00,,,0.00,5.0,meteohub,2013-06-21 12:45:00,
2013-06-21 05:51:00,49.6,48.6,29.89,West,262,3.0,7.0,96,0.00,,,0.00,7.0,meteohub,2013-06-21 12:51:00,
2013-06-21 05:55:00,49.6,48.6,29.89,West,279,2.0,7.0,96,0.00,,,0.00,9.0,meteohub,2013-06-21 12:55:00,
2013-06-21 06:01:00,49.6,48.6,29.89,WNW,294,2.0,4.0,96,0.00,,,0.00,11.0,meteohub,2013-06-21 13:01:00,
2013-06-21 06:06:00,49.6,48.6,29.90,WNW,283,1.0,4.0,96,0.00,,,0.00,14.0,meteohub,2013-06-21 13:06:00,
2013-06-21 06:11:00,49.6,48.6,29.90,West,269,4.0,6.0,96,0.00,,,0.00,16.0,meteohub,2013-06-21 13:11:00,
2013-06-21 06:16:00,49.6,48.6,29.89,WNW,302,2.0,6.0,96,0.00,,,0.00,18.0,meteohub,2013-06-21 13:16:00,
2013-06-21 06:21:00,49.8,48.7,29.90,WNW,288,4.0,6.0,96,0.00,,,0.00,19.0,meteohub,2013-06-21 13:21:00,
2013-06-21 06:26:00,50.0,48.9,29.90,WNW,298,4.0,6.0,96,0.00,,,0.00,21.0,meteohub,2013-06-21 13:26:00,
2013-06-21 06:31:00,50.0,48.9,29.90,WNW,286,4.0,6.0,96,0.00,,,0.00,23.0,meteohub,2013-06-21 13:31:00,
2013-06-21 06:36:00,50.2,49.1,29.90,West,272,5.0,6.0,96,0.00,,,0.00,25.0,meteohub,2013-06-21 13:36:00,
2013-06-21 06:41:00,50.2,49.1,29.90,WNW,285,5.0,7.0,96,0.00,,,0.00,30.0,meteohub,2013-06-21 13:41:00,
2013-06-21 06:46:00,50.4,49.3,29.90,WNW,294,2.0,7.0,96,0.00,,,0.00,28.0,meteohub,2013-06-21 13:46:00,
2013-06-21 06:51:00,50.5,49.1,29.90,WNW,286,1.0,7.0,95,0.00,,,0.00,30.0,meteohub,2013-06-21 13:51:00,
2013-06-21 06:56:00,50.7,49.3,29.90,WNW,287,2.0,6.0,95,0.00,,,0.00,32.0,meteohub,2013-06-21 13:56:00,
2013-06-21 07:01:00,50.9,49.5,29.91,West,281,3.0,6.0,95,0.00,,,0.00,33.0,meteohub,2013-06-21 14:01:00,
2013-06-21 07:06:00,51.1,49.5,29.91,West,281,4.0,6.0,94,0.00,,,0.00,35.0,meteohub,2013-06-21 14:06:00,
2013-06-21 07:12:00,51.4,49.8,29.91,WSW,251,1.0,5.0,94,0.00,,,0.00,190.0,meteohub,2013-06-21 14:12:00,
2013-06-21 07:17:00,51.8,49.8,29.91,WNW,284,1.0,5.0,93,0.00,,,0.00,200.0,meteohub,2013-06-21 14:17:00,
2013-06-21 07:22:00,52.2,49.8,29.91,WSW,255,1.0,6.0,92,0.00,,,0.00,216.0,meteohub,2013-06-21 14:22:00,
2013-06-21 07:27:00,52.3,50.0,29.91,West,263,2.0,6.0,92,0.00,,,0.00,232.0,meteohub,2013-06-21 14:27:00,
2013-06-21 07:32:00,52.9,50.4,29.91,West,269,2.0,6.0,91,0.00,,,0.00,248.0,meteohub,2013-06-21 14:32:00,
2013-06-21 07:37:00,53.1,50.2,29.91,West,263,5.0,6.0,90,0.00,,,0.00,265.0,meteohub,2013-06-21 14:37:00,
2013-06-21 07:42:00,53.6,50.7,29.91,SW,219,5.0,6.0,90,0.00,,,0.00,279.0,meteohub,2013-06-21 14:42:00,
2013-06-21 07:47:00,54.1,50.7,29.91,WSW,239,2.0,6.0,88,0.00,,,0.00,297.0,meteohub,2013-06-21 14:47:00,
2013-06-21 07:52:00,54.3,50.5,29.91,NW,316,1.0,6.0,87,0.00,,,0.00,315.0,meteohub,2013-06-21 14:52:00,
2013-06-21 07:57:00,54.9,50.7,29.91,WNW,290,0.0,6.0,86,0.00,,,0.00,330.0,meteohub,2013-06-21 14:57:00,
2013-06-21 08:02:00,55.2,50.7,29.91,West,273,1.0,7.0,85,0.00,,,0.00,346.0,meteohub,2013-06-21 15:02:00,
2013-06-21 08:07:00,55.6,50.9,29.91,West,271,2.0,7.0,84,0.00,,,0.00,360.0,meteohub,2013-06-21 15:07:00,
2013-06-21 08:13:00,55.9,50.5,29.91,SW,228,5.0,7.0,82,0.00,,,0.00,380.0,meteohub,2013-06-21 15:13:00,
2013-06-21 08:18:00,56.7,50.9,29.91,WNW,301,5.0,8.0,81,0.00,,,0.00,397.0,meteohub,2013-06-21 15:18:00,
2013-06-21 08:23:00,57.0,50.9,29.91,WSW,252,2.0,8.0,80,0.00,,,0.00,413.0,meteohub,2013-06-21 15:23:00,
2013-06-21 08:28:00,57.4,50.9,29.91,West,274,5.0,8.0,79,0.00,,,0.00,431.0,meteohub,2013-06-21 15:28:00,
2013-06-21 08:33:00,57.7,51.3,29.91,West,264,4.0,6.0,79,0.00,,,0.00,445.0,meteohub,2013-06-21 15:33:00,
2013-06-21 08:38:00,57.9,51.4,29.91,WNW,296,3.0,7.0,79,0.00,,,0.00,459.0,meteohub,2013-06-21 15:38:00,
2013-06-21 08:43:00,57.9,50.4,29.92,WNW,292,4.0,7.0,76,0.00,,,0.00,475.0,meteohub,2013-06-21 15:43:00,
2013-06-21 08:48:00,57.9,50.4,29.92,NW,311,7.0,9.0,76,0.00,,,0.00,492.0,meteohub,2013-06-21 15:48:00,
2013-06-21 08:53:00,58.1,50.9,29.92,SW,231,3.0,9.0,77,0.00,,,0.00,508.0,meteohub,2013-06-21 15:53:00,
2013-06-21 08:58:00,57.9,50.4,29.92,SSW,211,5.0,9.0,76,0.00,,,0.00,522.0,meteohub,2013-06-21 15:58:00,
2013-06-21 09:03:00,57.9,50.7,29.92,WSW,245,2.0,9.0,77,0.00,,,0.00,538.0,meteohub,2013-06-21 16:03:00,
2013-06-21 09:08:00,58.5,50.9,29.92,SW,232,2.0,9.0,76,0.00,,,0.00,554.0,meteohub,2013-06-21 16:08:00,
2013-06-21 09:13:00,58.5,51.3,29.91,SSW,211,2.0,9.0,77,0.00,,,0.00,568.0,meteohub,2013-06-21 16:13:00,
2013-06-21 09:18:00,59.2,51.3,29.91,West,270,1.0,7.0,75,0.00,,,0.00,582.0,meteohub,2013-06-21 16:18:00,
2013-06-21 09:23:00,59.5,51.3,29.91,SSW,206,2.0,7.0,74,0.00,,,0.00,598.0,meteohub,2013-06-21 16:23:00,
2013-06-21 09:28:00,59.7,51.1,29.91,SW,232,7.0,7.0,73,0.00,,,0.00,615.0,meteohub,2013-06-21 16:28:00,
2013-06-21 09:33:00,60.6,52.0,29.91,WSW,254,1.0,8.0,73,0.00,,,0.00,629.0,meteohub,2013-06-21 16:33:00,
2013-06-21 09:38:00,61.0,51.4,29.91,NW,311,1.0,8.0,71,0.00,,,0.00,642.0,meteohub,2013-06-21 16:38:00,
2013-06-21 09:43:00,60.8,51.3,29.91,SSW,211,5.0,8.0,71,0.00,,,0.00,654.0,meteohub,2013-06-21 16:43:00,
2013-06-21 09:48:00,61.3,51.8,29.91,WSW,257,1.0,10.0,71,0.00,,,0.00,664.0,meteohub,2013-06-21 16:48:00,
2013-06-21 09:53:00,62.1,51.8,29.91,SW,232,9.0,10.0,69,0.00,,,0.00,682.0,meteohub,2013-06-21 16:53:00,
2013-06-21 09:58:00,62.2,52.0,29.91,SW,234,9.0,9.0,69,0.00,,,0.00,696.0,meteohub,2013-06-21 16:58:00,
2013-06-21 10:04:00,62.6,52.3,29.91,West,269,4.0,11.0,69,0.00,,,0.00,707.0,meteohub,2013-06-21 17:04:00,
2013-06-21 10:09:00,62.6,52.0,29.91,WSW,252,7.0,11.0,68,0.00,,,0.00,721.0,meteohub,2013-06-21 17:09:00,
2013-06-21 10:14:00,62.1,51.8,29.91,SSW,211,3.0,11.0,69,0.00,,,0.00,731.0,meteohub,2013-06-21 17:14:00,
2013-06-21 10:19:00,62.2,52.0,29.92,WNW,302,2.0,11.0,69,0.00,,,0.00,744.0,meteohub,2013-06-21 17:19:00,
2013-06-21 10:24:00,63.1,51.6,29.92,WSW,251,2.0,11.0,66,0.00,,,0.00,758.0,meteohub,2013-06-21 17:24:00,
2013-06-21 10:29:00,62.8,52.0,29.92,SSW,202,5.0,11.0,68,0.00,,,0.00,766.0,meteohub,2013-06-21 17:29:00,
2013-06-21 10:34:00,63.0,51.4,29.92,WSW,237,3.0,12.0,66,0.00,,,0.00,779.0,meteohub,2013-06-21 17:34:00,
2013-06-21 10:40:00,63.0,51.8,29.92,WSW,252,7.0,12.0,67,0.00,,,0.00,789.0,meteohub,2013-06-21 17:40:00,
2013-06-21 10:45:00,62.4,51.3,29.92,WSW,240,6.0,13.0,67,0.00,,,0.00,805.0,meteohub,2013-06-21 17:45:00,
2013-06-21 10:46:00,62.4,51.3,29.92,WSW,245,8.0,13.0,67,0.00,,,0.00,805.0,meteohub,2013-06-21 17:46:00,
2013-06-21 10:49:00,62.2,51.6,29.92,SSW,211,2.0,13.0,68,0.00,,,0.00,809.0,meteohub,2013-06-21 17:49:00,
2013-06-21 10:54:00,62.8,52.0,29.92,WNW,293,5.0,14.0,68,0.00,,,0.00,821.0,meteohub,2013-06-21 17:54:00,
2013-06-21 11:00:00,62.4,52.2,29.92,WNW,292,5.0,14.0,69,0.00,,,0.00,833.0,meteohub,2013-06-21 18:00:00,
2013-06-21 11:05:00,62.2,51.1,29.92,West,272,8.0,16.0,67,0.00,,,0.00,844.0,meteohub,2013-06-21 18:05:00,
2013-06-21 11:10:00,62.2,52.0,29.92,NW,304,3.0,16.0,69,0.00,,,0.00,853.0,meteohub,2013-06-21 18:10:00,
2013-06-21 11:16:00,61.9,51.3,29.92,SW,223,14.0,14.0,68,0.00,,,0.00,865.0,meteohub,2013-06-21 18:16:00,
2013-06-21 11:21:00,61.0,51.1,29.93,SSW,200,4.0,16.0,70,0.00,,,0.00,870.0,meteohub,2013-06-21 18:21:00,
2013-06-21 11:23:00,60.8,50.9,29.93,SSW,211,11.0,16.0,70,0.00,,,0.00,875.0,meteohub,2013-06-21 18:23:00,
2013-06-21 11:24:00,60.6,50.7,29.93,SW,236,7.0,16.0,70,0.00,,,0.00,874.0,meteohub,2013-06-21 18:24:00,
2013-06-21 11:29:00,60.4,51.1,29.93,WSW,253,6.0,16.0,71,0.00,,,0.00,884.0,meteohub,2013-06-21 18:29:00,
2013-06-21 11:34:00,60.3,50.9,29.93,West,266,1.0,16.0,71,0.00,,,0.00,891.0,meteohub,2013-06-21 18:34:00,
2013-06-21 11:39:00,61.5,51.3,29.93,WSW,257,9.0,17.0,69,0.00,,,0.00,904.0,meteohub,2013-06-21 18:39:00,
2013-06-21 11:45:00,61.5,51.3,29.93,West,271,7.0,17.0,69,0.00,,,0.00,911.0,meteohub,2013-06-21 18:45:00,
2013-06-21 11:46:00,61.2,50.9,29.93,West,273,5.0,18.0,69,0.00,,,0.00,911.0,meteohub,2013-06-21 18:46:00,
2013-06-21 11:51:00,60.4,51.4,29.93,West,273,11.0,18.0,72,0.00,,,0.00,921.0,meteohub,2013-06-21 18:51:00,
2013-06-21 11:56:00,60.8,51.8,29.93,WSW,254,14.0,18.0,72,0.00,,,0.00,925.0,meteohub,2013-06-21 18:56:00,
2013-06-21 12:01:00,61.5,52.0,29.93,WNW,284,2.0,19.0,71,0.00,,,0.00,933.0,meteohub,2013-06-21 19:01:00,
2013-06-21 12:06:00,61.2,51.6,29.93,WSW,240,12.0,19.0,71,0.00,,,0.00,939.0,meteohub,2013-06-21 19:06:00,
2013-06-21 12:12:00,61.3,51.8,29.92,WNW,298,4.0,19.0,71,0.00,,,0.00,944.0,meteohub,2013-06-21 19:12:00,
2013-06-21 12:17:00,61.3,52.2,29.93,West,261,7.0,20.0,72,0.00,,,0.00,946.0,meteohub,2013-06-21 19:17:00,
2013-06-21 12:20:00,61.7,52.2,29.92,SW,219,10.0,20.0,71,0.00,,,0.00,947.0,meteohub,2013-06-21 19:20:00,
2013-06-21 12:25:00,61.9,52.3,29.92,West,265,11.0,20.0,71,0.00,,,0.00,953.0,meteohub,2013-06-21 19:25:00,
2013-06-21 12:30:00,61.9,52.3,29.93,SW,221,4.0,20.0,71,0.00,,,0.00,956.0,meteohub,2013-06-21 19:30:00,
2013-06-21 12:35:00,61.9,52.0,29.93,West,259,9.0,16.0,70,0.00,,,0.00,960.0,meteohub,2013-06-21 19:35:00,
2013-06-21 12:40:00,61.7,52.2,29.93,WSW,247,5.0,15.0,71,0.00,,,0.00,962.0,meteohub,2013-06-21 19:40:00,
2013-06-21 12:43:00,62.2,52.3,29.93,SW,228,12.0,17.0,70,0.00,,,0.00,963.0,meteohub,2013-06-21 19:43:00,
2013-06-21 12:48:00,61.5,52.0,29.92,WSW,242,16.0,19.0,71,0.00,,,0.00,967.0,meteohub,2013-06-21 19:48:00,
2013-06-21 12:53:00,61.5,52.0,29.93,SW,231,6.0,21.0,71,0.00,,,0.00,969.0,meteohub,2013-06-21 19:53:00,
2013-06-21 12:58:00,61.0,52.3,29.93,West,281,5.0,21.0,73,0.00,,,0.00,972.0,meteohub,2013-06-21 19:58:00,
2013-06-21 13:03:00,61.0,52.3,29.93,South,188,6.0,21.0,73,0.00,,,0.00,972.0,meteohub,2013-06-21 20:03:00,
2013-06-21 13:04:00,61.2,52.5,29.93,WSW,238,7.0,21.0,73,0.00,,,0.00,970.0,meteohub,2013-06-21 20:04:00,
2013-06-21 13:09:00,61.9,53.1,29.93,West,271,5.0,17.0,73,0.00,,,0.00,970.0,meteohub,2013-06-21 20:09:00,
2013-06-21 13:11:00,62.1,52.5,29.93,WNW,290,17.0,17.0,71,0.00,,,0.00,972.0,meteohub,2013-06-21 20:11:00,
2013-06-21 13:14:00,61.5,52.3,29.93,WSW,248,6.0,17.0,72,0.00,,,0.00,976.0,meteohub,2013-06-21 20:14:00,
2013-06-21 13:19:00,61.9,53.1,29.93,WNW,298,6.0,19.0,73,0.00,,,0.00,976.0,meteohub,2013-06-21 20:19:00,
2013-06-21 13:24:00,61.9,52.7,29.93,SSW,198,3.0,19.0,72,0.00,,,0.00,974.0,meteohub,2013-06-21 20:24:00,
2013-06-21 13:29:00,61.2,52.5,29.93,West,275,12.0,19.0,73,0.00,,,0.00,976.0,meteohub,2013-06-21 20:29:00,
2013-06-21 13:34:00,60.8,52.5,29.92,WNW,286,5.0,21.0,74,0.00,,,0.00,972.0,meteohub,2013-06-21 20:34:00,
2013-06-21 13:39:00,61.2,52.5,29.92,WSW,242,15.0,21.0,73,0.00,,,0.00,974.0,meteohub,2013-06-21 20:39:00,
2013-06-21 13:44:00,61.0,52.7,29.92,WSW,243,4.0,23.0,74,0.00,,,0.00,974.0,meteohub,2013-06-21 20:44:00,
2013-06-21 13:49:00,61.3,52.7,29.92,WNW,300,4.0,23.0,73,0.00,,,0.00,969.0,meteohub,2013-06-21 20:49:00,
2013-06-21 13:54:00,61.3,52.7,29.92,SW,216,3.0,23.0,73,0.00,,,0.00,969.0,meteohub,2013-06-21 20:54:00,
2013-06-21 13:59:00,61.2,52.5,29.91,NW,314,6.0,23.0,73,0.00,,,0.00,962.0,meteohub,2013-06-21 20:59:00,
2013-06-21 14:04:00,61.5,52.7,29.91,SW,215,7.0,23.0,73,0.00,,,0.00,963.0,meteohub,2013-06-21 21:04:00,
2013-06-21 14:05:00,61.5,52.7,29.91,WSW,245,6.0,23.0,73,0.00,,,0.00,963.0,meteohub,2013-06-21 21:05:00,
2013-06-21 14:10:00,61.5,52.7,29.91,SW,227,10.0,23.0,73,0.00,,,0.00,958.0,meteohub,2013-06-21 21:10:00,
2013-06-21 14:15:00,61.2,52.5,29.91,West,269,12.0,23.0,73,0.00,,,0.00,956.0,meteohub,2013-06-21 21:15:00,
2013-06-21 14:20:00,61.3,53.1,29.91,SSW,198,4.0,23.0,74,0.00,,,0.00,949.0,meteohub,2013-06-21 21:20:00,
2013-06-21 14:25:00,61.5,52.7,29.91,WSW,242,5.0,20.0,73,0.00,,,0.00,942.0,meteohub,2013-06-21 21:25:00,
2013-06-21 14:30:00,61.2,52.5,29.91,WNW,298,7.0,20.0,73,0.00,,,0.00,940.0,meteohub,2013-06-21 21:30:00,
2013-06-21 14:35:00,61.2,52.5,29.91,West,265,15.0,20.0,73,0.00,,,0.00,932.0,meteohub,2013-06-21 21:35:00,
2013-06-21 14:40:00,61.3,52.7,29.91,West,263,7.0,20.0,73,0.00,,,0.00,926.0,meteohub,2013-06-21 21:40:00,
2013-06-21 14:45:00,61.2,52.5,29.91,NE,34,4.0,20.0,73,0.00,,,0.00,925.0,meteohub,2013-06-21 21:45:00,
2013-06-21 14:50:00,61.2,52.9,29.91,SW,228,6.0,21.0,74,0.00,,,0.00,911.0,meteohub,2013-06-21 21:50:00,
2013-06-21 14:55:00,61.0,52.7,29.91,West,278,9.0,21.0,74,0.00,,,0.00,902.0,meteohub,2013-06-21 21:55:00,
2013-06-21 15:01:00,61.2,52.5,29.91,NW,323,6.0,21.0,73,0.00,,,0.00,896.0,meteohub,2013-06-21 22:01:00,
2013-06-21 15:06:00,60.8,52.9,29.91,SW,225,5.0,22.0,75,0.00,,,0.00,886.0,meteohub,2013-06-21 22:06:00,
2013-06-21 15:11:00,61.2,52.9,29.91,SW,215,5.0,22.0,74,0.00,,,0.00,879.0,meteohub,2013-06-21 22:11:00,
2013-06-21 15:16:00,61.0,53.1,29.91,WSW,240,10.0,20.0,75,0.00,,,0.00,867.0,meteohub,2013-06-21 22:16:00,
2013-06-21 15:21:00,61.3,53.1,29.90,NE,51,4.0,20.0,74,0.00,,,0.00,861.0,meteohub,2013-06-21 22:21:00,
2013-06-21 15:26:00,61.0,53.1,29.91,WNW,285,4.0,19.0,75,0.00,,,0.00,849.0,meteohub,2013-06-21 22:26:00,
2013-06-21 15:31:00,61.0,52.7,29.90,WNW,290,11.0,19.0,74,0.00,,,0.00,838.0,meteohub,2013-06-21 22:31:00,
2013-06-21 15:36:00,61.0,53.1,29.91,West,273,15.0,20.0,75,0.00,,,0.00,830.0,meteohub,2013-06-21 22:36:00,
2013-06-21 15:41:00,61.2,52.9,29.90,SSW,204,11.0,21.0,74,0.00,,,0.00,819.0,meteohub,2013-06-21 22:41:00,
2013-06-21 15:46:00,61.2,53.2,29.90,WSW,242,5.0,26.0,75,0.00,,,0.00,803.0,meteohub,2013-06-21 22:46:00,
2013-06-21 15:51:00,61.0,52.7,29.90,West,261,10.0,26.0,74,0.00,,,0.00,793.0,meteohub,2013-06-21 22:51:00,
2013-06-21 15:56:00,60.8,52.9,29.90,South,188,9.0,26.0,75,0.00,,,0.00,788.0,meteohub,2013-06-21 22:56:00,
2013-06-21 16:01:00,61.2,53.2,29.90,SW,221,17.0,23.0,75,0.00,,,0.00,773.0,meteohub,2013-06-21 23:01:00,
2013-06-21 16:06:00,61.0,53.1,29.90,WSW,237,11.0,22.0,75,0.00,,,0.00,763.0,meteohub,2013-06-21 23:06:00,
2013-06-21 16:11:00,60.4,52.9,29.91,WNW,298,6.0,22.0,76,0.00,,,0.00,751.0,meteohub,2013-06-21 23:11:00,
2013-06-21 16:16:00,60.4,52.9,29.91,WSW,256,9.0,22.0,76,0.00,,,0.00,744.0,meteohub,2013-06-21 23:16:00,
2013-06-21 16:21:00,60.3,52.7,29.90,WSW,252,9.0,21.0,76,0.00,,,0.00,726.0,meteohub,2013-06-21 23:21:00,
2013-06-21 16:26:00,60.6,52.7,29.90,West,272,3.0,21.0,75,0.00,,,0.00,721.0,meteohub,2013-06-21 23:26:00,
2013-06-21 16:31:00,60.4,52.9,29.89,West,265,7.0,21.0,76,0.00,,,0.00,707.0,meteohub,2013-06-21 23:31:00,
2013-06-21 16:36:00,60.3,52.7,29.89,West,261,10.0,23.0,76,0.00,,,0.00,691.0,meteohub,2013-06-21 23:36:00,
2013-06-21 16:41:00,59.7,52.2,29.89,West,271,18.0,23.0,76,0.00,,,0.00,677.0,meteohub,2013-06-21 23:41:00,
2013-06-21 16:46:00,59.4,52.2,29.89,West,277,6.0,23.0,77,0.00,,,0.00,661.0,meteohub,2013-06-21 23:46:00,
2013-06-21 16:51:00,60.1,52.5,29.89,West,279,6.0,19.0,76,0.00,,,0.00,643.0,meteohub,2013-06-21 23:51:00,
2013-06-21 16:56:00,59.5,52.3,29.89,WSW,250,5.0,19.0,77,0.00,,,0.00,628.0,meteohub,2013-06-21 23:56:00,
2013-06-21 17:01:00,59.7,52.2,29.88,WSW,246,9.0,21.0,76,0.00,,,0.00,612.0,meteohub,2013-06-22 00:01:00,
2013-06-21 17:06:00,59.4,52.2,29.88,WSW,239,5.0,21.0,77,0.00,,,0.00,594.0,meteohub,2013-06-22 00:06:00,
2013-06-21 17:11:00,59.5,52.3,29.88,WSW,240,5.0,21.0,77,0.00,,,0.00,578.0,meteohub,2013-06-22 00:11:00,
2013-06-21 17:16:00,59.4,52.2,29.88,NW,312,10.0,18.0,77,0.00,,,0.00,566.0,meteohub,2013-06-22 00:16:00,
2013-06-21 17:21:00,59.2,52.0,29.88,WSW,247,17.0,18.0,77,0.00,,,0.00,550.0,meteohub,2013-06-22 00:21:00,
2013-06-21 17:26:00,58.6,51.4,29.88,SW,218,8.0,17.0,77,0.00,,,0.00,501.0,meteohub,2013-06-22 00:26:00,
2013-06-21 17:31:00,58.5,52.0,29.88,WSW,258,5.0,18.0,79,0.00,,,0.00,519.0,meteohub,2013-06-22 00:31:00,
2013-06-21 17:36:00,58.5,52.0,29.88,WSW,251,11.0,23.0,79,0.00,,,0.00,501.0,meteohub,2013-06-22 00:36:00,
2013-06-21 17:41:00,58.5,52.0,29.88,WSW,242,6.0,23.0,79,0.00,,,0.00,483.0,meteohub,2013-06-22 00:41:00,
2013-06-21 17:46:00,58.5,52.0,29.87,West,267,10.0,23.0,79,0.00,,,0.00,464.0,meteohub,2013-06-22 00:46:00,
2013-06-21 17:51:00,58.3,51.8,29.87,SW,235,8.0,23.0,79,0.00,,,0.00,448.0,meteohub,2013-06-22 00:51:00,
2013-06-21 17:56:00,58.3,51.8,29.87,WNW,302,9.0,23.0,79,0.00,,,0.00,434.0,meteohub,2013-06-22 00:56:00,
2013-06-21 18:01:00,58.1,51.6,29.87,SW,234,18.0,19.0,79,0.00,,,0.00,418.0,meteohub,2013-06-22 01:01:00,
2013-06-21 18:06:00,57.7,51.6,29.87,WNW,288,12.0,19.0,80,0.00,,,0.00,403.0,meteohub,2013-06-22 01:06:00,
2013-06-21 18:12:00,57.7,51.6,29.87,WNW,290,7.0,19.0,80,0.00,,,0.00,385.0,meteohub,2013-06-22 01:12:00,
2013-06-21 18:17:00,57.7,51.6,29.87,WSW,254,13.0,20.0,80,0.00,,,0.00,369.0,meteohub,2013-06-22 01:17:00,
2013-06-21 18:22:00,57.7,52.0,29.87,SW,223,10.0,20.0,81,0.00,,,0.00,353.0,meteohub,2013-06-22 01:22:00,
2013-06-21 18:27:00,57.7,51.6,29.87,SSW,205,3.0,16.0,80,0.00,,,0.00,336.0,meteohub,2013-06-22 01:27:00,
2013-06-21 18:32:00,57.7,51.6,29.87,WSW,242,6.0,16.0,80,0.00,,,0.00,316.0,meteohub,2013-06-22 01:32:00,
2013-06-21 18:37:00,57.7,51.6,29.87,WNW,303,2.0,16.0,80,0.00,,,0.00,302.0,meteohub,2013-06-22 01:37:00,
2013-06-21 18:42:00,57.6,51.4,29.87,West,267,12.0,18.0,80,0.00,,,0.00,285.0,meteohub,2013-06-22 01:42:00,
2013-06-21 18:47:00,57.6,51.4,29.87,South,190,7.0,18.0,80,0.00,,,0.00,269.0,meteohub,2013-06-22 01:47:00,
2013-06-21 18:52:00,57.0,51.3,29.87,WNW,291,5.0,18.0,81,0.00,,,0.00,250.0,meteohub,2013-06-22 01:52:00,
2013-06-21 18:57:00,56.8,51.1,29.88,WNW,285,2.0,16.0,81,0.00,,,0.00,230.0,meteohub,2013-06-22 01:57:00,
2013-06-21 19:02:00,56.8,51.4,29.88,WSW,246,4.0,16.0,82,0.00,,,0.00,204.0,meteohub,2013-06-22 02:02:00,
2013-06-21 19:07:00,56.7,51.3,29.88,SW,215,13.0,17.0,82,0.00,,,0.00,188.0,meteohub,2013-06-22 02:07:00,
2013-06-21 19:12:00,56.1,50.7,29.88,SW,227,11.0,17.0,82,0.00,,,0.00,174.0,meteohub,2013-06-22 02:12:00,
2013-06-21 19:17:00,55.9,50.9,29.88,WSW,238,7.0,18.0,83,0.00,,,0.00,153.0,meteohub,2013-06-22 02:17:00,
2013-06-21 19:22:00,55.9,50.9,29.88,WSW,239,12.0,18.0,83,0.00,,,0.00,132.0,meteohub,2013-06-22 02:22:00,
2013-06-21 19:27:00,55.8,50.7,29.88,WNW,290,12.0,16.0,83,0.00,,,0.00,114.0,meteohub,2013-06-22 02:27:00,
2013-06-21 19:31:00,55.6,50.9,29.88,SW,222,6.0,19.0,84,0.00,,,0.00,98.0,meteohub,2013-06-22 02:31:00,
2013-06-21 19:37:00,55.4,50.7,29.88,WSW,238,11.0,19.0,84,0.00,,,0.00,83.0,meteohub,2013-06-22 02:37:00,
2013-06-21 19:42:00,55.2,50.5,29.87,SW,236,7.0,19.0,84,0.00,,,0.00,67.0,meteohub,2013-06-22 02:42:00,
2013-06-21 19:47:00,55.0,50.5,29.87,NW,310,5.0,18.0,85,0.00,,,0.00,56.0,meteohub,2013-06-22 02:47:00,
2013-06-21 19:52:00,55.0,50.5,29.87,SSW,196,7.0,15.0,85,0.00,,,0.00,26.0,meteohub,2013-06-22 02:52:00,
2013-06-21 19:57:00,54.9,50.4,29.87,SSW,194,6.0,16.0,85,0.00,,,0.00,25.0,meteohub,2013-06-22 02:57:00,
2013-06-21 20:02:00,54.7,50.2,29.87,West,268,6.0,16.0,85,0.00,,,0.00,21.0,meteohub,2013-06-22 03:02:00,
2013-06-21 20:07:00,54.5,50.4,29.87,WSW,254,3.0,16.0,86,0.00,,,0.00,18.0,meteohub,2013-06-22 03:07:00,
2013-06-21 20:12:00,54.3,50.2,29.86,WSW,240,10.0,14.0,86,0.00,,,0.00,16.0,meteohub,2013-06-22 03:12:00,
2013-06-21 20:17:00,54.1,50.0,29.86,SSW,207,3.0,13.0,86,0.00,,,0.00,14.0,meteohub,2013-06-22 03:17:00,
2013-06-21 20:22:00,54.1,50.0,29.87,SW,235,13.0,17.0,86,0.00,,,0.00,11.0,meteohub,2013-06-22 03:22:00,
2013-06-21 20:27:00,54.0,50.2,29.86,WSW,245,9.0,17.0,87,0.00,,,0.00,9.0,meteohub,2013-06-22 03:27:00,
2013-06-21 20:32:00,53.8,50.0,29.86,South,183,2.0,17.0,87,0.00,,,0.00,7.0,meteohub,2013-06-22 03:32:00,
2013-06-21 20:37:00,53.8,50.0,29.86,SSW,205,10.0,17.0,87,0.00,,,0.00,5.0,meteohub,2013-06-22 03:37:00,
2013-06-21 20:42:00,53.6,49.8,29.86,SW,223,6.0,17.0,87,0.00,,,0.00,0.0,meteohub,2013-06-22 03:42:00,
2013-06-21 20:47:00,53.4,50.0,29.87,WSW,248,3.0,17.0,88,0.00,,,0.00,0.0,meteohub,2013-06-22 03:47:00,
2013-06-21 20:52:00,53.4,50.0,29.86,WSW,258,5.0,17.0,88,0.00,,,0.00,0.0,meteohub,2013-06-22 03:52:00,
2013-06-21 20:57:00,53.2,49.8,29.86,WNW,284,6.0,16.0,88,0.00,,,0.00,0.0,meteohub,2013-06-22 03:57:00,
2013-06-21 21:01:00,53.2,49.8,29.86,SW,234,7.0,16.0,88,0.00,,,0.00,0.0,meteohub,2013-06-22 04:01:00,
2013-06-21 21:06:00,53.2,49.8,29.86,NNW,327,5.0,16.0,88,0.00,,,0.00,0.0,meteohub,2013-06-22 04:06:00,
2013-06-21 21:11:00,53.2,49.8,29.86,WNW,284,3.0,14.0,88,0.00,,,0.00,0.0,meteohub,2013-06-22 04:11:00,
2013-06-21 21:16:00,53.1,49.6,29.87,West,265,8.0,14.0,88,0.00,,,0.00,0.0,meteohub,2013-06-22 04:16:00,
2013-06-21 21:21:00,53.1,49.6,29.87,West,259,5.0,14.0,88,0.00,,,0.00,0.0,meteohub,2013-06-22 04:21:00,
2013-06-21 21:26:00,53.1,49.6,29.86,West,269,4.0,14.0,88,0.00,,,0.00,0.0,meteohub,2013-06-22 04:26:00,
2013-06-21 21:31:00,52.9,49.6,29.87,SW,214,6.0,15.0,89,0.00,,,0.00,0.0,meteohub,2013-06-22 04:31:00,
2013-06-21 21:36:00,52.9,49.6,29.87,SSW,202,9.0,15.0,89,0.00,,,0.00,0.0,meteohub,2013-06-22 04:36:00,
2013-06-21 21:41:00,52.9,49.6,29.87,WSW,238,12.0,15.0,89,0.00,,,0.00,0.0,meteohub,2013-06-22 04:41:00,
2013-06-21 21:46:00,52.7,49.5,29.87,SW,233,6.0,15.0,89,0.00,,,0.00,0.0,meteohub,2013-06-22 04:46:00,
2013-06-21 21:51:00,52.5,49.5,29.87,WSW,244,4.0,15.0,89,0.00,,,0.00,0.0,meteohub,2013-06-22 04:51:00,
2013-06-21 21:56:00,52.5,49.5,29.87,West,259,5.0,14.0,89,0.00,,,0.00,0.0,meteohub,2013-06-22 04:56:00,
2013-06-21 22:01:00,52.5,49.6,29.87,WSW,248,6.0,19.0,90,0.00,,,0.00,0.0,meteohub,2013-06-22 05:01:00,
2013-06-21 22:06:00,52.3,49.5,29.88,SW,236,10.0,19.0,90,0.00,,,0.00,0.0,meteohub,2013-06-22 05:06:00,
2013-06-21 22:11:00,52.3,49.5,29.88,SW,234,10.0,19.0,90,0.00,,,0.00,0.0,meteohub,2013-06-22 05:11:00,
2013-06-21 22:16:00,52.3,49.5,29.88,SSW,206,6.0,15.0,90,0.00,,,0.00,0.0,meteohub,2013-06-22 05:16:00,
2013-06-21 22:22:00,52.3,49.5,29.88,SW,231,9.0,15.0,90,0.00,,,0.00,0.0,meteohub,2013-06-22 05:22:00,
2013-06-21 22:27:00,52.2,49.3,29.88,WSW,246,10.0,16.0,90,0.00,,,0.00,0.0,meteohub,2013-06-22 05:27:00,
2013-06-21 22:32:00,52.2,49.6,29.88,SW,228,6.0,16.0,91,0.00,,,0.00,0.0,meteohub,2013-06-22 05:32:00,
2013-06-21 22:37:00,52.2,49.6,29.88,WSW,239,6.0,16.0,91,0.00,,,0.00,0.0,meteohub,2013-06-22 05:37:00,
2013-06-21 22:42:00,52.2,49.6,29.88,West,260,6.0,16.0,91,0.00,,,0.00,0.0,meteohub,2013-06-22 05:42:00,
2013-06-21 22:47:00,52.0,49.5,29.88,WSW,258,12.0,15.0,91,0.00,,,0.00,0.0,meteohub,2013-06-22 05:47:00,
2013-06-21 22:52:00,52.0,49.5,29.87,SW,236,8.0,14.0,91,0.00,,,0.00,0.0,meteohub,2013-06-22 05:52:00,
2013-06-21 22:57:00,52.0,49.5,29.88,SW,235,10.0,15.0,91,0.00,,,0.00,0.0,meteohub,2013-06-22 05:57:00,
2013-06-21 23:02:00,51.8,49.3,29.88,SW,225,7.0,15.0,91,0.00,,,0.00,0.0,meteohub,2013-06-22 06:02:00,
2013-06-21 23:07:00,51.8,49.3,29.88,SW,217,10.0,15.0,91,0.00,,,0.00,0.0,meteohub,2013-06-22 06:07:00,
2013-06-21 23:12:00,51.6,49.1,29.88,WSW,248,7.0,14.0,91,0.00,,,0.00,0.0,meteohub,2013-06-22 06:12:00,
2013-06-21 23:17:00,51.6,49.5,29.88,SW,228,6.0,13.0,92,0.00,,,0.00,0.0,meteohub,2013-06-22 06:17:00,
2013-06-21 23:22:00,51.6,49.5,29.88,SW,219,7.0,13.0,92,0.00,,,0.00,0.0,meteohub,2013-06-22 06:22:00,
2013-06-21 23:27:00,51.6,49.5,29.87,West,261,4.0,13.0,92,0.00,,,0.00,0.0,meteohub,2013-06-22 06:27:00,
2013-06-21 23:32:00,51.6,49.5,29.87,WSW,254,3.0,15.0,92,0.00,,,0.00,0.0,meteohub,2013-06-22 06:32:00,
2013-06-21 23:37:00,51.4,49.3,29.88,SW,223,5.0,15.0,92,0.00,,,0.00,0.0,meteohub,2013-06-22 06:37:00,
2013-06-21 23:42:00,51.4,49.3,29.88,WSW,247,4.0,15.0,92,0.00,,,0.00,0.0,meteohub,2013-06-22 06:42:00,
2013-06-21 23:47:00,51.4,49.3,29.88,SSW,196,9.0,12.0,92,0.00,,,0.00,0.0,meteohub,2013-06-22 06:47:00,
2013-06-21 23:52:00,51.4,49.3,29.88,WSW,249,6.0,12.0,92,0.00,,,0.00,0.0,meteohub,2013-06-22 06:52:00,
2013-06-21 23:57:00,51.4,49.3,29.88,SW,234,12.0,13.0,92,0.00,,,0.00,0.0,meteohub,2013-06-22 06:57:00,